Time;durP1;ratioP1;P1;durP2;ratioP2;P2;SDS_P1;SDS_P2;PMS_P1;PMS_P2;Temp;Humidity;BMP_temperature;BMP_pressure;BME280_temperature;BME280_humidity;BME280_pressure;Samples;Min_cycle;Max_cycle;Signal;HPM_P1;HPM_P2
2022/02/22 00:00:14;;;;;;;11.60;3.47;;;;;;;21.25;37.21;101269.44;5038656;28;20049;-70
2022/02/22 00:02:42;;;;;;;12.30;3.72;;;;;;;21.24;37.20;101278.34;5034234;28;20024;-70
2022/02/22 00:05:09;;;;;;;12.18;3.03;;;;;;;21.17;37.07;101288.81;5039947;28;20028;-70
2022/02/22 00:07:35;;;;;;;9.38;3.28;;;;;;;21.14;37.26;101289.19;5067234;28;20131;-69
2022/02/22 00:10:01;;;;;;;12.43;3.50;;;;;;;21.16;37.21;101308.34;5036762;28;20112;-70
2022/02/22 00:12:26;;;;;;;11.93;3.70;;;;;;;21.21;37.08;101313.16;5035041;28;20917;-70
2022/02/22 00:14:52;;;;;;;13.18;2.92;;;;;;;21.10;37.30;101309.06;5037909;28;20068;-70
2022/02/22 00:17:17;;;;;;;10.20;3.00;;;;;;;21.08;37.16;101319.84;5035530;28;20041;-71
2022/02/22 00:19:43;;;;;;;9.40;3.67;;;;;;;21.08;37.08;101327.78;5036166;28;20048;-70
2022/02/22 00:22:08;;;;;;;9.45;2.70;;;;;;;21.07;37.23;101326.13;5032594;28;20052;-70
2022/02/22 00:24:34;;;;;;;9.45;3.40;;;;;;;21.06;37.20;101327.13;5039738;28;20029;-70
2022/02/22 00:26:59;;;;;;;10.70;3.40;;;;;;;21.02;37.23;101343.56;5031730;28;20052;-70
2022/02/22 00:29:25;;;;;;;12.73;3.80;;;;;;;21.02;37.18;101347.03;5042498;28;20028;-70
2022/02/22 00:31:51;;;;;;;12.70;3.63;;;;;;;20.98;37.06;101347.53;5031572;28;20041;-70
2022/02/22 00:34:17;;;;;;;15.23;3.92;;;;;;;20.94;37.50;101354.19;5040309;28;20037;-70
2022/02/22 00:36:44;;;;;;;7.28;2.72;;;;;;;20.92;37.23;101346.41;5033102;28;21058;-70
2022/02/22 00:39:10;;;;;;;13.25;3.88;;;;;;;20.85;37.26;101342.00;5037127;28;20033;-70
2022/02/22 00:41:36;;;;;;;7.00;2.65;;;;;;;20.81;37.49;101360.03;5035530;28;20120;-70
2022/02/22 00:44:02;;;;;;;9.38;3.25;;;;;;;20.84;37.30;101369.47;5035783;28;20587;-70
2022/02/22 00:46:27;;;;;;;12.20;3.30;;;;;;;20.73;37.54;101355.63;5034588;28;20152;-70
2022/02/22 00:48:53;;;;;;;13.23;3.47;;;;;;;20.81;37.39;101371.44;5037162;28;20037;-70
2022/02/22 00:51:19;;;;;;;8.05;2.85;;;;;;;20.80;37.27;101377.75;5032129;28;20478;-70
2022/02/22 00:53:45;;;;;;;12.60;3.00;;;;;;;20.74;37.28;101390.84;5029617;28;20063;-70
2022/02/22 00:56:10;;;;;;;12.85;2.92;;;;;;;20.68;37.50;101392.38;5030446;28;20526;-70
2022/02/22 00:58:36;;;;;;;8.80;3.60;;;;;;;20.70;37.51;101389.53;5037600;28;20111;-69
2022/02/22 01:01:01;;;;;;;10.32;3.40;;;;;;;20.61;37.55;101396.69;5033505;28;20138;-69
2022/02/22 01:03:27;;;;;;;11.52;3.67;;;;;;;20.64;37.37;101408.75;5036033;28;20052;-70
2022/02/22 01:05:52;;;;;;;12.85;3.30;;;;;;;20.68;37.44;101407.41;5029114;28;20166;-70
2022/02/22 01:08:18;;;;;;;9.40;3.00;;;;;;;20.63;37.53;101402.63;5031577;28;20056;-70
2022/02/22 01:10:44;;;;;;;11.77;3.22;;;;;;;20.60;37.43;101402.13;5033864;28;20068;-70
2022/02/22 01:13:09;;;;;;;10.30;3.28;;;;;;;20.56;37.52;101403.47;5029908;28;20174;-70
2022/02/22 01:15:35;;;;;;;8.68;3.10;;;;;;;20.61;37.46;101409.09;5036665;28;20041;-70
2022/02/22 01:18:01;;;;;;;11.40;3.45;;;;;;;20.51;37.57;101417.22;5029800;28;20055;-70
2022/02/22 01:20:26;;;;;;;12.48;3.35;;;;;;;20.46;37.65;101430.94;5038149;28;20033;-70
2022/02/22 01:22:54;;;;;;;7.97;3.33;;;;;;;20.48;37.59;101423.69;5031186;28;20032;-70
2022/02/22 01:25:20;;;;;;;13.23;3.50;;;;;;;20.39;37.74;101439.72;5032984;28;20510;-70
2022/02/22 01:27:46;;;;;;;11.68;3.00;;;;;;;20.41;37.74;101435.09;5033108;28;20121;-70
2022/02/22 01:30:11;;;;;;;13.93;3.50;;;;;;;20.40;37.82;101428.13;5033131;28;20908;-70
2022/02/22 01:32:37;;;;;;;10.95;3.08;;;;;;;20.41;37.66;101440.41;5038601;28;20125;-70
2022/02/22 01:35:05;;;;;;;10.48;3.60;;;;;;;20.43;37.62;101446.34;5029667;28;20060;-70
2022/02/22 01:37:31;;;;;;;12.32;3.17;;;;;;;20.40;37.68;101450.13;5032485;28;20083;-70
2022/02/22 01:39:57;;;;;;;14.95;3.28;;;;;;;20.38;37.63;101446.81;5037901;28;20045;-70
2022/02/22 01:42:22;;;;;;;11.73;4.20;;;;;;;20.39;37.69;101452.94;5030423;28;20381;-70
2022/02/22 01:44:48;;;;;;;9.65;3.10;;;;;;;20.32;37.85;101450.16;5035841;28;20048;-70
2022/02/22 01:47:16;;;;;;;10.57;3.10;;;;;;;20.31;37.79;101461.72;5028194;28;20103;-70
2022/02/22 01:49:43;;;;;;;8.77;3.03;;;;;;;20.26;37.79;101452.63;5032744;28;20079;-70
2022/02/22 01:52:09;;;;;;;9.85;3.13;;;;;;;20.27;37.89;101457.72;5026297;28;20316;-70
2022/02/22 01:54:35;;;;;;;11.73;3.13;;;;;;;20.27;37.74;101460.38;5032543;28;20032;-70
2022/02/22 01:57:01;;;;;;;13.52;3.50;;;;;;;20.26;37.75;101455.25;5031600;28;20037;-70
2022/02/22 01:59:27;;;;;;;10.60;2.83;;;;;;;20.26;37.76;101455.25;5031199;28;20032;-70
2022/02/22 02:01:53;;;;;;;11.68;3.55;;;;;;;20.17;37.88;101463.22;5037402;28;20044;-70
2022/02/22 02:04:19;;;;;;;9.32;3.33;;;;;;;20.23;37.73;101464.34;5032187;28;20067;-70
2022/02/22 02:06:45;;;;;;;10.68;3.03;;;;;;;20.22;37.73;101463.53;5036665;28;20029;-69
2022/02/22 02:09:11;;;;;;;10.90;3.00;;;;;;;20.16;37.97;101466.84;5028354;28;20484;-70
2022/02/22 02:11:49;;;;;;;7.57;2.53;;;;;;;20.16;37.82;101479.25;5036386;28;20076;-70
2022/02/22 02:14:16;;;;;;;9.40;3.17;;;;;;;20.12;38.05;101477.94;5031273;28;20056;-70
2022/02/22 02:16:42;;;;;;;12.05;3.35;;;;;;;20.05;37.95;101480.41;5030745;28;20047;-69
2022/02/22 02:19:13;;;;;;;10.23;3.25;;;;;;;20.04;38.08;101470.00;5035264;28;20039;-69
2022/02/22 02:21:40;;;;;;;7.75;2.90;;;;;;;20.08;37.93;101481.88;5028368;28;20060;-70
2022/02/22 02:24:08;;;;;;;10.43;2.83;;;;;;;20.05;37.91;101483.03;5030790;28;20653;-70
2022/02/22 02:26:34;;;;;;;9.63;2.90;;;;;;;20.09;37.99;101483.53;5041075;28;20052;-70
2022/02/22 02:28:59;;;;;;;7.82;3.22;;;;;;;20.07;37.94;101482.88;5031386;28;20036;-70
2022/02/22 02:31:25;;;;;;;8.32;2.60;;;;;;;19.85;38.34;101487.00;5036761;28;20041;-70
2022/02/22 02:33:50;;;;;;;13.02;3.25;;;;;;;19.96;38.19;101486.69;5028608;28;20037;-70
2022/02/22 02:36:16;;;;;;;12.55;3.88;;;;;;;19.97;38.14;101487.50;5037731;28;20155;-69
2022/02/22 02:38:41;;;;;;;9.90;2.83;;;;;;;20.03;38.18;101498.25;5025699;28;20063;-70
2022/02/22 02:41:07;;;;;;;6.97;2.78;;;;;;;19.97;38.06;101496.28;5032141;28;20056;-70
2022/02/22 02:43:33;;;;;;;7.68;3.08;;;;;;;19.96;38.01;101507.84;5026974;28;20036;-70
2022/02/22 02:45:58;;;;;;;6.78;2.40;;;;;;;19.96;38.12;101521.06;5035860;28;20040;-70
2022/02/22 02:48:24;;;;;;;13.63;3.55;;;;;;;19.91;38.15;101512.75;5033600;28;20098;-69
2022/02/22 02:50:49;;;;;;;8.75;2.55;;;;;;;19.94;38.01;101498.41;5033927;28;20438;-69
2022/02/22 02:53:15;;;;;;;9.10;2.78;;;;;;;19.91;38.18;101507.47;5029721;28;20052;-70
2022/02/22 02:55:41;;;;;;;12.95;2.90;;;;;;;19.82;38.28;101519.88;5028645;28;20038;-70
2022/02/22 02:58:07;;;;;;;12.00;3.25;;;;;;;19.89;38.23;101527.97;5032542;28;20160;-70
2022/02/22 03:00:32;;;;;;;7.30;2.60;;;;;;;19.85;38.20;101516.91;5035065;28;20041;-70
2022/02/22 03:02:58;;;;;;;7.13;2.78;;;;;;;19.81;38.47;101520.03;5028857;28;20602;-70
2022/02/22 03:05:23;;;;;;;8.75;2.42;;;;;;;19.85;38.19;101529.28;5033963;28;20044;-70
2022/02/22 03:07:49;;;;;;;8.13;2.80;;;;;;;19.78;38.35;101517.72;5022406;28;20048;-70
2022/02/22 03:10:14;;;;;;;8.88;2.95;;;;;;;19.74;38.22;101516.38;5037577;28;20037;-70
2022/02/22 03:12:40;;;;;;;8.18;2.67;;;;;;;19.70;38.53;101526.44;5026692;28;20052;-70
2022/02/22 03:15:06;;;;;;;6.93;2.55;;;;;;;19.69;38.33;101521.31;5031533;28;20063;-70
2022/02/22 03:17:31;;;;;;;8.30;3.15;;;;;;;19.73;38.33;101525.28;5031998;28;20843;-70
2022/02/22 03:19:57;;;;;;;6.38;2.65;;;;;;;19.70;38.37;101525.63;5028466;28;20037;-70
2022/02/22 03:22:22;;;;;;;7.97;2.78;;;;;;;19.62;38.69;101534.38;5036656;28;20296;-70
2022/02/22 03:24:48;;;;;;;8.52;2.90;;;;;;;19.66;38.41;101537.50;5028949;28;20044;-70
2022/02/22 03:27:14;;;;;;;10.38;3.33;;;;;;;19.63;38.68;101543.94;5033419;28;20337;-70
2022/02/22 03:29:40;;;;;;;9.48;3.10;;;;;;;19.64;38.64;101537.66;5030729;28;20052;-70
2022/02/22 03:32:06;;;;;;;8.60;2.92;;;;;;;19.59;38.67;101550.53;5037394;28;20049;-70
2022/02/22 03:34:31;;;;;;;7.63;2.72;;;;;;;19.50;38.56;101557.56;5033882;28;20470;-70
2022/02/22 03:36:57;;;;;;;10.85;3.00;;;;;;;19.56;38.57;101540.28;5035962;28;20044;-70
2022/02/22 03:39:22;;;;;;;9.00;3.00;;;;;;;19.55;38.67;101544.72;5035223;28;20273;-70
2022/02/22 03:41:48;;;;;;;7.97;2.60;;;;;;;19.57;38.60;101550.69;5035352;28;20064;-70
2022/02/22 03:44:13;;;;;;;10.23;3.35;;;;;;;19.62;38.57;101552.84;5033021;28;20045;-71
2022/02/22 03:46:39;;;;;;;10.05;3.03;;;;;;;19.57;38.51;101553.34;5038124;28;20032;-69
2022/02/22 03:49:05;;;;;;;7.90;2.83;;;;;;;19.51;38.57;101551.28;5032051;28;20090;-70
2022/02/22 03:51:31;;;;;;;8.27;2.50;;;;;;;19.49;38.54;101555.09;5036665;28;20045;-70
2022/02/22 03:53:56;;;;;;;10.57;2.65;;;;;;;19.50;38.62;101552.28;5031588;28;20033;-70
2022/02/22 03:56:22;;;;;;;6.00;3.05;;;;;;;19.53;38.72;101551.97;5036791;28;20066;-70
2022/02/22 03:58:47;;;;;;;7.70;3.00;;;;;;;19.59;38.42;101558.47;5028615;28;20798;-70
2022/02/22 04:01:13;;;;;;;12.85;2.92;;;;;;;19.49;38.59;101563.84;5039092;28;20114;-69
2022/02/22 04:03:39;;;;;;;9.68;2.80;;;;;;;19.44;38.85;101565.31;5034180;28;20122;-70
2022/02/22 04:06:04;;;;;;;13.63;2.90;;;;;;;19.49;38.70;101550.63;5035738;28;20035;-69
2022/02/22 04:08:30;;;;;;;9.93;3.17;;;;;;;19.45;38.65;101548.47;5031398;28;20679;-69
2022/02/22 04:10:55;;;;;;;8.75;2.58;;;;;;;19.48;38.78;101556.06;5033599;28;20544;-70
2022/02/22 04:13:21;;;;;;;8.10;2.53;;;;;;;19.41;38.81;101553.25;5068144;28;20068;-69
2022/02/22 04:15:46;;;;;;;7.03;2.60;;;;;;;19.44;38.75;101560.03;5034660;28;20049;-70
2022/02/22 04:18:12;;;;;;;6.40;2.45;;;;;;;19.47;38.56;101557.88;5037624;28;20049;-70
2022/02/22 04:20:37;;;;;;;7.97;2.83;;;;;;;19.41;38.76;101557.72;5035692;28;20037;-69
2022/02/22 04:23:03;;;;;;;8.80;2.83;;;;;;;19.45;38.71;101551.94;5036673;28;20096;-70
2022/02/22 04:25:29;;;;;;;9.13;2.60;;;;;;;19.40;38.80;101561.34;5036181;28;20639;-69
2022/02/22 04:27:54;;;;;;;5.65;2.10;;;;;;;19.40;38.76;101564.81;5066579;28;20068;-70
2022/02/22 04:30:20;;;;;;;9.80;2.90;;;;;;;19.32;38.95;101562.13;5069408;28;20391;-69
2022/02/22 04:32:46;;;;;;;9.02;2.65;;;;;;;19.32;38.79;101573.50;5039016;28;20045;-69
2022/02/22 04:35:11;;;;;;;7.13;2.33;;;;;;;19.26;38.93;101573.31;5033452;28;20115;-69
2022/02/22 04:37:37;;;;;;;7.63;2.92;;;;;;;19.31;38.89;101571.84;5037230;28;20357;-70
2022/02/22 04:40:04;;;;;;;8.00;2.45;;;;;;;19.30;38.77;101577.28;5064462;28;20683;-70
2022/02/22 04:42:30;;;;;;;7.50;3.20;;;;;;;19.27;39.03;101582.91;5039577;28;20024;-69
2022/02/22 04:44:55;;;;;;;7.65;2.40;;;;;;;19.20;38.97;101587.13;5032673;28;20502;-69
2022/02/22 04:47:21;;;;;;;9.55;2.70;;;;;;;19.22;39.02;101579.91;5042316;28;20037;-70
2022/02/22 04:49:46;;;;;;;8.93;2.83;;;;;;;19.18;39.18;101579.38;5037179;28;20044;-70
2022/02/22 04:52:12;;;;;;;8.63;2.50;;;;;;;19.28;39.10;101582.72;5034639;28;20072;-70
2022/02/22 04:54:38;;;;;;;6.32;2.13;;;;;;;19.25;38.99;101580.41;5032283;28;20095;-70
2022/02/22 04:57:05;;;;;;;8.48;2.60;;;;;;;19.20;38.87;101584.50;5037581;28;20075;-70
2022/02/22 04:59:31;;;;;;;6.45;2.15;;;;;;;19.21;38.78;101580.88;5033352;28;20101;-70
2022/02/22 05:01:56;;;;;;;6.65;2.17;;;;;;;19.27;38.86;101577.63;5033630;28;20605;-69
2022/02/22 05:04:22;;;;;;;10.10;3.17;;;;;;;19.16;38.98;101573.41;5036581;28;20056;-70
2022/02/22 05:06:47;;;;;;;6.53;2.75;;;;;;;19.17;39.09;101579.53;5045393;28;20099;-70
2022/02/22 05:09:13;;;;;;;11.65;2.75;;;;;;;19.24;38.85;101588.50;5029799;28;20387;-69
2022/02/22 05:11:39;;;;;;;9.10;2.45;;;;;;;19.21;39.20;101599.34;5039591;28;20999;-69
2022/02/22 05:14:05;;;;;;;7.75;2.50;;;;;;;19.13;39.07;101599.31;5060649;28;20044;-70
2022/02/22 05:16:32;;;;;;;6.45;2.40;;;;;;;19.24;38.84;101599.06;5040557;28;20101;-70
2022/02/22 05:18:59;;;;;;;7.93;2.50;;;;;;;19.20;38.83;101603.78;5030862;28;20071;-69
2022/02/22 05:21:24;;;;;;;5.30;1.95;;;;;;;19.18;38.92;101592.56;5032059;28;20565;-70
2022/02/22 05:23:50;;;;;;;8.05;2.92;;;;;;;19.24;38.99;101593.78;5040735;28;20033;-70
2022/02/22 05:26:15;;;;;;;5.60;2.25;;;;;;;19.31;38.66;101592.16;5031132;28;20056;-70
2022/02/22 05:28:44;;;;;;;6.80;2.67;;;;;;;19.31;38.59;101587.69;5043411;28;20036;-70
2022/02/22 05:31:12;;;;;;;5.20;1.98;;;;;;;19.32;38.73;101594.63;5030418;28;20076;-70
2022/02/22 05:33:38;;;;;;;6.40;2.13;;;;;;;19.26;38.79;101597.91;5039270;28;20037;-70
2022/02/22 05:36:03;;;;;;;6.55;2.13;;;;;;;19.23;38.82;101586.84;5033147;28;20167;-70
2022/02/22 05:38:29;;;;;;;9.95;2.60;;;;;;;19.28;38.90;101592.47;5033160;28;20922;-70
2022/02/22 05:40:55;;;;;;;7.93;2.35;;;;;;;19.23;38.80;101592.94;5033752;28;20048;-70
2022/02/22 05:43:20;;;;;;;7.60;2.70;;;;;;;19.22;39.05;101593.09;5033411;28;20041;-70
2022/02/22 05:45:46;;;;;;;7.25;2.25;;;;;;;19.29;38.86;101594.13;5032882;28;20046;-70
2022/02/22 05:48:11;;;;;;;7.18;2.83;;;;;;;20.12;37.37;101589.81;5038457;28;20045;-70
2022/02/22 05:50:38;;;;;;;4.90;1.65;;;;;;;20.66;36.32;101592.00;5034447;28;20933;-70
2022/02/22 05:53:05;;;;;;;5.20;1.98;;;;;;;21.11;35.72;101586.97;5036040;28;20083;-70
2022/02/22 05:55:31;;;;;;;8.20;2.25;;;;;;;21.53;34.99;101577.88;5028440;28;20029;-70
2022/02/22 05:57:56;;;;;;;9.07;3.15;;;;;;;21.99;34.35;101583.28;5036294;28;20071;-70
2022/02/22 06:00:22;;;;;;;7.43;2.33;;;;;;;22.18;34.05;101582.84;5027220;28;20383;-70
2022/02/22 06:02:48;;;;;;;6.72;2.60;;;;;;;22.18;34.04;101577.53;5038488;28;20043;-70
2022/02/22 06:05:14;;;;;;;7.70;2.78;;;;;;;22.09;34.39;101588.41;5028957;28;20048;-71
2022/02/22 06:07:39;;;;;;;4.18;2.08;;;;;;;21.90;34.86;101582.53;5033883;28;20041;-70
2022/02/22 06:10:06;;;;;;;6.70;2.33;;;;;;;21.69;35.09;101585.75;5004299;28;20041;-70
2022/02/22 06:12:32;;;;;;;6.40;2.35;;;;;;;21.63;35.16;101583.81;5033034;28;20629;-70
2022/02/22 06:14:57;;;;;;;5.68;2.38;;;;;;;21.64;35.50;101579.34;5033074;28;20045;-70
2022/02/22 06:17:23;;;;;;;7.28;2.53;;;;;;;21.69;35.46;101574.34;5037031;28;20040;-70
2022/02/22 06:19:49;;;;;;;7.20;2.33;;;;;;;21.67;35.32;101577.16;5032219;28;20037;-70
2022/02/22 06:22:15;;;;;;;5.65;1.98;;;;;;;21.76;35.53;101577.97;5042713;28;20041;-70
2022/02/22 06:24:40;;;;;;;9.55;2.65;;;;;;;21.80;35.10;101584.56;5036793;28;20036;-70
2022/02/22 06:27:06;;;;;;;6.18;1.90;;;;;;;21.99;34.86;101593.88;5036156;28;20568;-70
2022/02/22 06:29:33;;;;;;;4.78;1.95;;;;;;;22.16;34.58;101600.78;5030521;28;20063;-70
2022/02/22 06:31:58;;;;;;;4.38;1.77;;;;;;;22.29;34.60;101602.84;5034715;28;20037;-70
2022/02/22 06:34:24;;;;;;;9.43;2.45;;;;;;;22.25;34.48;101594.38;5034098;28;20050;-70
2022/02/22 06:36:50;;;;;;;8.52;2.45;;;;;;;22.22;34.45;101593.94;5034546;28;20028;-70
2022/02/22 06:39:15;;;;;;;5.25;2.20;;;;;;;22.13;34.91;101600.31;5038788;28;20051;-70
2022/02/22 06:41:41;;;;;;;5.57;2.45;;;;;;;22.01;34.79;101592.72;5028521;28;20041;-70
2022/02/22 06:44:07;;;;;;;6.03;2.42;;;;;;;21.92;35.16;101591.13;5041139;28;20043;-71
2022/02/22 06:46:32;;;;;;;7.22;2.30;;;;;;;21.86;35.38;101593.63;5028915;28;20077;-70
2022/02/22 06:48:58;;;;;;;7.47;2.20;;;;;;;21.80;35.44;101587.22;5036640;28;20021;-70
2022/02/22 06:51:23;;;;;;;7.15;2.35;;;;;;;21.72;35.66;101587.22;5030239;28;20839;-70
2022/02/22 06:53:49;;;;;;;7.47;2.40;;;;;;;21.72;35.75;101587.22;5036877;28;20646;-70
2022/02/22 06:56:15;;;;;;;6.55;2.03;;;;;;;21.74;35.47;101584.44;5032161;28;20333;-70
2022/02/22 06:58:40;;;;;;;6.97;2.30;;;;;;;21.71;35.75;101585.59;5032325;28;20426;-70
2022/02/22 07:01:06;;;;;;;6.10;1.90;;;;;;;21.85;35.39;101590.16;5034472;28;20475;-70
2022/02/22 07:03:31;;;;;;;5.55;1.90;;;;;;;22.17;35.08;101589.16;5033501;28;20037;-70
2022/02/22 07:05:57;;;;;;;6.68;2.15;;;;;;;22.45;34.38;101583.31;5031452;28;20384;-70
2022/02/22 07:08:23;;;;;;;7.43;2.38;;;;;;;22.40;34.40;101577.69;5036307;28;20061;-70
2022/02/22 07:10:49;;;;;;;6.50;2.53;;;;;;;22.39;34.74;101584.00;5002022;28;20949;-70
2022/02/22 07:13:15;;;;;;;6.55;2.28;;;;;;;22.30;34.48;101580.63;5037790;28;20037;-70
2022/02/22 07:15:41;;;;;;;7.35;2.40;;;;;;;22.14;35.37;101573.59;5033065;28;20033;-70
2022/02/22 07:18:09;;;;;;;7.88;2.50;;;;;;;22.14;35.20;101573.59;5040747;28;20033;-70
2022/02/22 07:20:35;;;;;;;5.30;2.70;;;;;;;22.09;35.15;101580.44;5030866;28;20055;-70
2022/02/22 07:23:00;;;;;;;7.50;2.25;;;;;;;21.96;35.20;101575.69;5041485;28;20459;-69
2022/02/22 07:25:28;;;;;;;7.63;2.00;;;;;;;22.00;35.45;101571.66;5028442;28;20095;-69
2022/02/22 07:27:58;;;;;;;6.97;2.15;;;;;;;22.00;35.26;101567.19;5038091;28;20080;-69
2022/02/22 07:30:25;;;;;;;7.28;2.22;;;;;;;21.98;35.33;101566.53;5028369;28;20657;-69
2022/02/22 07:32:56;;;;;;;4.90;2.30;;;;;;;21.93;35.53;101570.72;5035663;28;20136;-68
2022/02/22 07:35:22;;;;;;;8.07;2.30;;;;;;;21.92;35.33;101566.44;5035425;28;20527;-70
2022/02/22 07:37:47;;;;;;;6.35;2.33;;;;;;;21.85;35.64;101566.28;5032295;28;20033;-69
2022/02/22 07:40:16;;;;;;;6.43;2.15;;;;;;;21.85;35.45;101571.59;5032859;28;20094;-69
2022/02/22 07:42:43;;;;;;;7.10;2.30;;;;;;;21.71;35.79;101565.19;5027818;28;20969;-69
2022/02/22 07:45:10;;;;;;;6.10;2.28;;;;;;;21.64;35.85;101560.78;5067042;28;20625;-70
2022/02/22 07:47:36;;;;;;;7.55;2.15;;;;;;;21.60;36.06;101562.97;5030264;28;20040;-69
2022/02/22 07:50:01;;;;;;;5.15;1.80;;;;;;;21.55;36.00;101560.00;5038124;28;21631;-70
2022/02/22 07:52:29;;;;;;;7.20;2.55;;;;;;;21.51;36.10;101561.34;5026517;28;20028;-69
2022/02/22 07:54:55;;;;;;;10.27;3.42;;;;;;;21.56;36.14;101566.13;5035931;28;20043;-70
2022/02/22 07:57:21;;;;;;;8.27;2.67;;;;;;;21.67;35.91;101568.38;5024381;28;20681;-69
2022/02/22 07:59:48;;;;;;;8.63;2.85;;;;;;;21.77;35.54;101569.00;5032503;28;20395;-70
2022/02/22 08:02:13;;;;;;;6.22;2.22;;;;;;;21.84;35.56;101571.78;5029337;28;20041;-69
2022/02/22 08:04:40;;;;;;;6.47;2.15;;;;;;;21.91;35.29;101589.47;5043764;28;20044;-70
2022/02/22 08:07:06;;;;;;;7.07;2.13;;;;;;;21.93;35.13;101584.81;5032539;28;20041;-70
2022/02/22 08:09:32;;;;;;;8.13;2.45;;;;;;;21.93;35.42;101579.50;5031918;28;20148;-70
2022/02/22 08:11:57;;;;;;;5.10;2.10;;;;;;;21.94;35.29;101575.03;5031550;28;20501;-70
2022/02/22 08:14:23;;;;;;;6.55;2.15;;;;;;;21.89;35.45;101572.88;5034636;28;20038;-70
2022/02/22 08:16:50;;;;;;;8.90;2.78;;;;;;;21.86;35.38;101565.28;5034268;28;20489;-70
2022/02/22 08:19:16;;;;;;;6.82;2.20;;;;;;;21.83;35.57;101554.22;5037595;28;20536;-70
2022/02/22 08:21:42;;;;;;;8.98;2.88;;;;;;;21.73;35.83;101549.16;5030305;28;20123;-70
2022/02/22 08:24:07;;;;;;;7.25;2.40;;;;;;;21.70;35.80;101549.47;5030213;28;20067;-70
2022/02/22 08:26:33;;;;;;;7.70;2.40;;;;;;;21.57;36.05;101538.63;5033695;28;20060;-70
2022/02/22 08:28:59;;;;;;;6.78;2.47;;;;;;;21.50;35.93;101549.09;5037974;28;20044;-69
2022/02/22 08:31:26;;;;;;;6.57;2.42;;;;;;;21.49;36.08;101551.91;5032816;28;20083;-69
2022/02/22 08:33:58;;;;;;;7.63;2.20;;;;;;;21.71;35.67;101551.94;4996153;28;20040;-69
2022/02/22 08:36:29;;;;;;;8.90;2.47;;;;;;;21.96;35.62;101549.16;5037021;28;20530;-70
2022/02/22 08:38:56;;;;;;;8.77;2.78;;;;;;;22.09;35.06;101543.31;5042311;28;20074;-70
2022/02/22 08:41:22;;;;;;;7.90;2.17;;;;;;;22.11;35.29;101546.59;5041232;28;20053;-70
2022/02/22 08:43:50;;;;;;;8.90;2.60;;;;;;;22.24;35.41;101538.84;5034525;28;20452;-68
2022/02/22 08:46:17;;;;;;;7.28;2.45;;;;;;;22.27;35.01;101531.38;5041871;28;20126;-67
2022/02/22 08:48:42;;;;;;;7.60;2.60;;;;;;;22.28;35.14;101526.91;5018704;28;20033;-70
2022/02/22 08:51:08;;;;;;;9.30;2.60;;;;;;;22.23;35.37;101526.59;5031354;28;20063;-68
2022/02/22 08:53:33;;;;;;;7.57;2.22;;;;;;;22.22;35.16;101515.16;5036099;28;20067;-69
2022/02/22 08:56:00;;;;;;;7.72;3.28;;;;;;;22.27;35.48;101518.13;5021244;28;20032;-68
2022/02/22 08:58:27;;;;;;;9.57;2.72;;;;;;;22.31;35.21;101514.09;5040638;28;20165;-67
2022/02/22 09:00:52;;;;;;;10.02;2.60;;;;;;;22.37;35.37;101515.19;5008396;28;20048;-69
2022/02/22 09:03:18;;;;;;;7.22;2.50;;;;;;;22.38;35.52;101511.53;5039146;28;20143;-68
2022/02/22 09:05:44;;;;;;;8.52;2.50;;;;;;;22.39;35.59;101507.06;4994566;28;20041;-70
2022/02/22 09:08:09;;;;;;;7.07;2.03;;;;;;;22.35;35.49;101503.13;5043020;28;20039;-68
2022/02/22 09:10:35;;;;;;;10.15;2.30;;;;;;;22.22;35.44;101493.94;5024878;28;20045;-69
2022/02/22 09:13:00;;;;;;;9.80;3.10;;;;;;;22.22;35.57;101487.81;5030179;28;20045;-72
2022/02/22 09:15:31;;;;;;;7.68;2.40;;;;;;;22.31;35.59;101490.22;5037702;28;21487;-70
2022/02/22 09:17:57;;;;;;;9.70;2.60;;;;;;;22.22;35.94;101483.31;5021062;28;20065;-69
2022/02/22 09:20:23;;;;;;;8.90;3.28;;;;;;;22.14;36.16;101479.94;5038903;28;20041;-69
2022/02/22 09:22:49;;;;;;;6.57;2.33;;;;;;;22.13;36.16;101480.94;4996879;28;20355;-69
2022/02/22 09:25:16;;;;;;;7.43;2.35;;;;;;;22.10;36.16;101483.97;5023997;28;20144;-69
2022/02/22 09:27:43;;;;;;;10.13;2.78;;;;;;;22.06;35.97;101462.25;5018653;28;20052;-69
2022/02/22 09:30:15;;;;;;;6.95;2.67;;;;;;;22.15;35.81;101468.31;5021062;28;20043;-68
2022/02/22 09:32:43;;;;;;;9.70;2.38;;;;;;;22.43;35.61;101457.91;5009660;28;20462;-69
2022/02/22 09:35:09;;;;;;;8.02;2.35;;;;;;;22.63;35.06;101461.72;5026613;28;20475;-69
2022/02/22 09:37:35;;;;;;;9.30;2.50;;;;;;;22.69;35.05;101468.09;5019576;28;20048;-69
2022/02/22 09:40:01;;;;;;;6.22;2.40;;;;;;;22.65;35.36;101464.19;5007196;28;20093;-68
2022/02/22 09:42:27;;;;;;;10.23;3.00;;;;;;;22.67;35.27;101462.16;5038096;28;20546;-68
2022/02/22 09:44:52;;;;;;;6.43;2.10;;;;;;;22.65;35.43;101464.19;5010860;28;20043;-68
2022/02/22 09:47:18;;;;;;;8.45;2.55;;;;;;;22.66;35.37;101458.69;5039350;28;20033;-68
2022/02/22 09:49:44;;;;;;;5.10;1.85;;;;;;;22.54;35.20;101463.63;5008543;28;20857;-68
2022/02/22 09:52:11;;;;;;;8.05;1.95;;;;;;;22.52;35.49;101462.97;5038291;28;20534;-68
2022/02/22 09:54:36;;;;;;;7.18;2.50;;;;;;;22.47;35.65;101475.16;4986944;28;20053;-68
2022/02/22 09:57:02;;;;;;;8.30;2.25;;;;;;;22.41;35.62;101467.91;5038021;28;20041;-68
2022/02/22 09:59:28;;;;;;;9.65;2.97;;;;;;;22.39;35.51;101478.69;5036199;28;20549;-68
2022/02/22 10:01:56;;;;;;;7.28;2.17;;;;;;;22.35;35.66;101472.09;5035489;28;20643;-68
2022/02/22 10:04:22;;;;;;;7.60;2.40;;;;;;;22.29;35.52;101460.41;5036804;28;20132;-67
2022/02/22 10:06:52;;;;;;;5.57;2.10;;;;;;;22.27;35.65;101469.53;5006620;28;20053;-67
2022/02/22 10:09:19;;;;;;;;;;;;;;;22.31;35.54;101470.81;5040413;28;20147;-68
2022/02/22 10:11:49;;;;;;;5.07;2.05;;;;;;;22.33;35.36;101476.78;4994934;28;19974;-68
2022/02/22 10:14:25;;;;;;;6.75;2.72;;;;;;;22.27;35.50;101466.88;5034670;28;20055;-68
2022/02/22 10:16:53;;;;;;;6.35;2.17;;;;;;;22.27;35.56;101456.28;5006025;28;20502;-68
2022/02/22 10:19:20;;;;;;;7.43;2.38;;;;;;;22.19;35.71;101440.41;5042111;28;20075;-68
2022/02/22 10:21:51;;;;;;;7.07;2.40;;;;;;;22.21;35.70;101449.84;5010498;28;20099;-68
2022/02/22 10:24:19;;;;;;;6.60;2.03;;;;;;;22.38;35.36;101450.50;5040015;28;20727;-68
2022/02/22 10:26:45;;;;;;;7.57;2.38;;;;;;;22.67;34.86;101441.75;5007638;28;20284;-68
2022/02/22 10:29:21;;;;;;;6.78;2.50;;;;;;;22.98;34.06;101428.28;5023164;28;20041;-68
2022/02/22 10:31:47;;;;;;;9.05;2.80;;;;;;;23.10;33.86;101420.66;5035951;28;20041;-68
2022/02/22 10:34:14;;;;;;;6.45;2.10;;;;;;;23.12;33.78;101400.03;5038786;28;20049;-67
2022/02/22 10:36:42;;;;;;;5.60;2.28;;;;;;;23.08;34.19;101399.59;5017020;28;20490;-68
2022/02/22 10:39:12;;;;;;;5.45;2.17;;;;;;;23.07;34.02;101389.97;5007979;28;20877;-68
2022/02/22 10:41:39;;;;;;;;;;;;;;;22.99;34.32;101389.28;5039589;28;20037;-68
2022/02/22 10:44:08;;;;;;;6.90;2.30;;;;;;;22.91;34.33;101383.03;5004745;28;20647;-67
2022/02/22 10:46:45;;;;;;;7.43;1.98;;;;;;;22.87;34.23;101378.31;5007516;28;20516;-68
2022/02/22 10:49:16;;;;;;;8.18;2.20;;;;;;;22.77;34.40;101370.59;5035278;28;20033;-67
2022/02/22 10:51:52;;;;;;;9.18;2.58;;;;;;;22.68;34.71;101365.59;5007586;28;20132;-68
2022/02/22 10:54:23;;;;;;;7.40;1.90;;;;;;;22.60;34.75;101345.25;5034196;28;20609;-68
2022/02/22 10:56:50;;;;;;;7.05;2.15;;;;;;;22.57;34.81;101333.19;4988625;28;20037;-68
2022/02/22 10:59:18;;;;;;;12.13;2.55;;;;;;;22.50;34.93;101342.91;5039397;28;20052;-68
2022/02/22 11:01:43;;;;;;;4.72;2.05;;;;;;;22.45;35.34;101339.16;5026464;28;20033;-68
2022/02/22 11:04:11;;;;;;;7.35;2.10;;;;;;;22.41;35.38;101328.06;5036778;28;20051;-67
2022/02/22 11:06:38;;;;;;;9.77;2.22;;;;;;;22.41;35.34;101330.72;5002157;28;21005;-67
2022/02/22 11:09:05;;;;;;;7.93;2.42;;;;;;;22.36;35.40;101330.47;5039966;28;20173;-68
2022/02/22 11:11:43;;;;;;;7.43;2.50;;;;;;;22.36;35.48;101334.94;5004143;28;20136;-68
2022/02/22 11:14:13;;;;;;;6.90;1.95;;;;;;;22.31;35.50;101340.81;5038373;28;20539;-68
2022/02/22 11:16:40;;;;;;;7.47;2.42;;;;;;;22.31;35.26;101348.78;4989874;28;20662;-68
2022/02/22 11:19:22;;;;;;;7.28;2.22;;;;;;;22.29;35.40;101338.34;5041874;28;20032;-67